Etusivu
METAR-TAF:

METAR-TAF

Lentoasemat :

Edgar County Airport

Paris, Illinois, Yhdysvallat

Leveyspiiri: 39-42-01N, Pituuspiiri: 087-40-11W, korkeus merenpinnasta: 199 m

Tämänhetkinen sää

Tämä raportti tehtiin 34 minuuttia sitten, kello 16.55 UTC
Tuuli 13 kn lounaasta
Lämpötila 6°C
Kosteus 52%
Ilmanpaine 1028 hPa
Näkyvyys: 16.1 km
selkeää

METAR: KPRG 221655Z AUTO 22013KT 10SM CLR 06/M03 A3036 RMK AO2 T00561035

Aika: 11:29 (17:29 UTC)


TAF: puuttuu

Säähavainnot ja -ennusteet yli 4000 lentoasemalta (METAR- ja TAF-raportit).

Käytössä olevat sääasemat on merkitty karttaan keltaisilla ja punaisilla pisteillä.

Aseta hiiri pisteen päälle nähdäksesi sääaseman nimen.

Klikkaa sitten nähdäksesi säähavainnot ja -ennusteet.

Kartan vaihtaminen: klikkaa mustalla rastilla varustettuja vihreitä pisteitä, niin voit zoomata sisään; viivalla varustettua vihreää pistettä, niin voit zoomata ulos tai vihreitä nuolia, niin pääset viereisille kartoille.


METAR-TAF: